createdAt,value
2023-11-18T00:02:03.756Z,100393.25
2023-11-18T00:05:08.632Z,100408.13
2023-11-18T00:08:11.151Z,100400.22
2023-11-18T00:11:14.614Z,100429.22
2023-11-18T00:14:17.011Z,100420.16
2023-11-18T00:17:21.403Z,100438.97
2023-11-18T00:20:25.471Z,100424.41
2023-11-18T00:23:27.992Z,100414.84
2023-11-18T00:26:30.502Z,100402.31
2023-11-18T00:29:35.284Z,100417.63
2023-11-18T00:32:38.628Z,100425.06
2023-11-18T00:35:41.202Z,100408.56
2023-11-18T00:38:43.661Z,100457.06
2023-11-18T00:41:46.135Z,100420.47
2023-11-18T00:44:48.894Z,100450.78
2023-11-18T00:47:51.340Z,100428.00
2023-11-18T00:50:53.805Z,100433.47
2023-11-18T00:53:56.248Z,100444.78
2023-11-18T00:56:58.803Z,100439.44
2023-11-18T01:00:01.252Z,100426.03
2023-11-18T01:03:04.555Z,100433.00
2023-11-18T01:06:07.666Z,100421.63
2023-11-18T01:09:10.804Z,100440.50
2023-11-18T01:12:13.264Z,100436.50
2023-11-18T01:15:15.905Z,100428.69
2023-11-18T01:18:19.109Z,100430.59
2023-11-18T01:21:22.807Z,100447.44
2023-11-18T01:24:25.531Z,100445.06
2023-11-18T01:27:28.455Z,100440.19
2023-11-18T01:30:31.414Z,100432.75
2023-11-18T01:33:38.519Z,100455.41
2023-11-18T01:36:40.939Z,100466.88
2023-11-18T01:39:43.390Z,100443.66
2023-11-18T01:42:47.793Z,100435.88
2023-11-18T01:45:50.671Z,100460.16
2023-11-18T01:48:53.674Z,100458.91
2023-11-18T01:51:57.800Z,100449.84
2023-11-18T01:55:00.773Z,100463.56
2023-11-18T01:58:09.684Z,100457.44
2023-11-18T02:01:12.335Z,100447.09
2023-11-18T02:04:16.473Z,100465.16
2023-11-18T02:07:19.188Z,100451.72
2023-11-18T02:10:21.738Z,100432.84
2023-11-18T02:13:28.628Z,100456.38
2023-11-18T02:16:32.562Z,100465.72
2023-11-18T02:19:36.010Z,100467.22
2023-11-18T02:22:38.502Z,100475.53
2023-11-18T02:25:46.212Z,100480.88
2023-11-18T02:28:48.748Z,100456.94
2023-11-18T02:31:53.984Z,100468.69
2023-11-18T02:35:17.051Z,100495.09
2023-11-18T02:38:21.674Z,100482.75
2023-11-18T02:41:25.562Z,100486.19
2023-11-18T02:44:29.225Z,100476.63
2023-11-18T02:47:31.760Z,100513.53
2023-11-18T02:50:36.614Z,100500.19
2023-11-18T02:53:39.215Z,100493.00
2023-11-18T02:56:41.635Z,100495.81
2023-11-18T02:59:44.146Z,100485.06
2023-11-18T03:02:48.302Z,100499.69
2023-11-18T03:05:51.227Z,100509.59
2023-11-18T03:08:54.387Z,100516.97
2023-11-18T03:11:56.835Z,100502.41
2023-11-18T03:14:59.471Z,100490.06
2023-11-18T03:18:01.934Z,100499.88
2023-11-18T03:21:04.879Z,100523.06
2023-11-18T03:24:07.932Z,100526.84
2023-11-18T03:27:10.365Z,100509.94
2023-11-18T03:30:13.009Z,100514.25
2023-11-18T03:33:15.539Z,100516.19
2023-11-18T03:36:19.261Z,100534.59
2023-11-18T03:39:22.286Z,100524.28
2023-11-18T03:42:24.712Z,100519.19
2023-11-18T03:45:27.576Z,100545.22
2023-11-18T03:48:29.996Z,100541.19
2023-11-18T03:51:32.417Z,100518.22
2023-11-18T03:54:34.901Z,100530.59
2023-11-18T03:57:37.406Z,100532.53
2023-11-18T04:00:39.854Z,100535.97
2023-11-18T04:03:43.229Z,100497.50
2023-11-18T04:06:47.897Z,100529.75
2023-11-18T04:09:50.465Z,100527.47
2023-11-18T04:12:52.943Z,100543.28
2023-11-18T04:15:55.411Z,100561.72
2023-11-18T04:18:57.832Z,100512.22
2023-11-18T04:22:00.315Z,100527.97
2023-11-18T04:25:02.739Z,100551.47
2023-11-18T04:28:05.453Z,100559.72
2023-11-18T04:31:08.205Z,100578.91
2023-11-18T04:34:10.728Z,100545.09
2023-11-18T04:37:13.224Z,100549.75
2023-11-18T04:40:16.823Z,100532.50
2023-11-18T04:43:25.388Z,100535.34
2023-11-18T04:46:33.027Z,100558.19
2023-11-18T04:49:36.304Z,100532.13
2023-11-18T04:52:38.899Z,100519.88
2023-11-18T04:55:41.430Z,100534.19
2023-11-18T04:58:43.973Z,100527.75
2023-11-18T05:01:46.816Z,100539.81
2023-11-18T05:04:50.161Z,100529.19
2023-11-18T05:07:52.871Z,100546.47
2023-11-18T05:10:55.784Z,100545.25
2023-11-18T05:13:58.407Z,100540.16
2023-11-18T05:17:00.848Z,100575.13
2023-11-18T05:20:04.906Z,100553.41
2023-11-18T05:23:07.457Z,100552.56
2023-11-18T05:26:10.565Z,100547.47
2023-11-18T05:29:17.734Z,100537.38
2023-11-18T05:32:21.649Z,100537.31
2023-11-18T05:35:29.364Z,100542.09
2023-11-18T05:38:35.842Z,100538.09
2023-11-18T05:41:40.974Z,100539.88
2023-11-18T05:44:43.887Z,100552.13
2023-11-18T05:47:46.318Z,100556.00
2023-11-18T05:50:49.379Z,100554.72
2023-11-18T05:53:53.422Z,100575.06
2023-11-18T05:56:58.540Z,100587.69
2023-11-18T06:00:01.865Z,100570.19
2023-11-18T06:03:04.548Z,100583.44
2023-11-18T06:06:08.129Z,100634.06
2023-11-18T06:09:19.103Z,100588.75
2023-11-18T06:12:21.524Z,100619.16
2023-11-18T06:15:23.985Z,100597.00
2023-11-18T06:18:26.468Z,100612.34
2023-11-18T06:21:32.462Z,100601.72
2023-11-18T06:24:34.992Z,100585.16
2023-11-18T06:27:37.421Z,100594.28
2023-11-18T06:30:40.185Z,100625.66
2023-11-18T06:33:46.881Z,100597.00
2023-11-18T06:36:49.632Z,100604.09
2023-11-18T06:39:52.111Z,100628.09
2023-11-18T06:43:02.641Z,100594.84
2023-11-18T06:46:05.216Z,100608.94
2023-11-18T06:49:08.639Z,100617.91
2023-11-18T06:52:13.100Z,100638.78
2023-11-18T06:55:16.527Z,100661.94
2023-11-18T06:58:19.317Z,100641.69
2023-11-18T07:01:22.238Z,100653.63
2023-11-18T07:04:24.682Z,100644.06
2023-11-18T07:07:27.278Z,100659.94
2023-11-18T07:10:29.680Z,100655.19
2023-11-18T07:13:32.291Z,100639.69
2023-11-18T07:16:34.746Z,100643.28
2023-11-18T07:19:37.230Z,100655.75
2023-11-18T07:22:40.602Z,100683.38
2023-11-18T07:25:44.595Z,100667.78
2023-11-18T07:28:47.198Z,100676.81
2023-11-18T07:31:50.682Z,100694.91
2023-11-18T07:34:53.262Z,100676.81
2023-11-18T07:37:55.753Z,100684.56
2023-11-18T07:40:58.277Z,100682.34
2023-11-18T07:44:01.876Z,100712.34
2023-11-18T07:47:06.183Z,100699.78
2023-11-18T07:50:13.649Z,100690.03
2023-11-18T07:53:17.167Z,100681.38
2023-11-18T07:56:19.877Z,100671.97
2023-11-18T07:59:23.153Z,100680.22
2023-11-18T08:02:26.391Z,100669.41
2023-11-18T08:05:29.455Z,100681.88
2023-11-18T08:08:31.924Z,100699.44
2023-11-18T08:11:34.652Z,100687.09
2023-11-18T08:14:37.257Z,100690.88
2023-11-18T08:17:39.790Z,100698.06
2023-11-18T08:20:42.640Z,100699.63
2023-11-18T08:23:45.042Z,100703.50
2023-11-18T08:26:48.148Z,100712.28
2023-11-18T08:29:50.634Z,100713.56
2023-11-18T08:32:53.652Z,100720.53
2023-11-18T08:35:56.416Z,100721.09
2023-11-18T08:38:58.865Z,100727.72
2023-11-18T08:42:01.359Z,100727.94
2023-11-18T08:45:05.672Z,100734.75
2023-11-18T08:48:09.776Z,100706.44
2023-11-18T08:51:14.343Z,100744.66
2023-11-18T08:54:23.633Z,100715.09
2023-11-18T08:57:26.530Z,100747.88
2023-11-18T09:00:49.361Z,100742.00
2023-11-18T09:03:54.168Z,100749.03
2023-11-18T09:07:01.494Z,100729.94
2023-11-18T09:10:04.234Z,100736.91
2023-11-18T09:13:06.916Z,100731.81
2023-11-18T09:16:10.280Z,100751.84
2023-11-18T09:19:12.907Z,100743.59
2023-11-18T09:22:15.992Z,100743.72
2023-11-18T09:25:18.744Z,100739.78
2023-11-18T09:28:22.107Z,100743.09
2023-11-18T09:31:24.651Z,100737.78
2023-11-18T09:34:34.546Z,100716.75
2023-11-18T09:37:37.903Z,100707.63
2023-11-18T09:40:44.635Z,100703.88
2023-11-18T09:43:48.785Z,100712.00
2023-11-18T09:46:58.765Z,100701.72
2023-11-18T09:50:04.593Z,100675.47
2023-11-18T09:53:12.521Z,100709.56
2023-11-18T09:56:27.657Z,100722.19
2023-11-18T09:59:36.969Z,100679.00
2023-11-18T10:02:42.797Z,100684.75
2023-11-18T10:05:46.205Z,100683.63
2023-11-18T10:08:49.988Z,100674.53
2023-11-18T10:11:56.367Z,100687.34
2023-11-18T10:14:59.873Z,100689.94
2023-11-18T10:18:11.143Z,100697.97
2023-11-18T10:21:19.024Z,100687.88
2023-11-18T10:24:21.639Z,100687.19
2023-11-18T10:27:30.868Z,100690.06
2023-11-18T10:30:34.457Z,100698.44
2023-11-18T10:33:43.540Z,100667.69
2023-11-18T10:37:07.842Z,100711.56
2023-11-18T10:40:14.553Z,100715.63
2023-11-18T10:43:18.170Z,100720.28
2023-11-18T10:46:22.342Z,100724.91
2023-11-18T10:49:25.353Z,100729.59
2023-11-18T10:52:31.972Z,100700.75
2023-11-18T10:55:41.464Z,100704.94
2023-11-18T10:58:44.022Z,100690.66
2023-11-18T11:01:50.531Z,100730.16
2023-11-18T11:04:54.207Z,100735.41
2023-11-18T11:07:57.798Z,100739.59
2023-11-18T11:11:01.693Z,100736.72
2023-11-18T11:14:05.122Z,100732.66
2023-11-18T11:17:12.832Z,100770.84
2023-11-18T11:20:25.181Z,100739.56
2023-11-18T11:23:51.852Z,100777.59
2023-11-18T11:27:30.019Z,100739.59
2023-11-18T11:30:52.255Z,100776.72
2023-11-18T11:34:00.115Z,100772.78
2023-11-18T11:37:04.648Z,100766.13
2023-11-18T11:40:12.038Z,100766.53
2023-11-18T11:43:22.307Z,100772.72
2023-11-18T11:46:26.414Z,100783.47
2023-11-18T11:49:36.101Z,100787.78
2023-11-18T11:52:43.746Z,100784.63
2023-11-18T11:55:52.703Z,100815.56
2023-11-18T11:59:01.239Z,100787.50
2023-11-18T12:02:09.000Z,100796.91
2023-11-18T12:05:20.444Z,100804.78
2023-11-18T12:08:26.710Z,100783.47
2023-11-18T12:11:34.623Z,100793.09
2023-11-18T12:14:52.003Z,100791.81
2023-11-18T12:17:58.778Z,100838.09
2023-11-18T12:21:05.223Z,100819.00
2023-11-18T12:24:20.456Z,100804.97
2023-11-18T12:27:41.522Z,100826.75
2023-11-18T12:30:58.170Z,100854.75
2023-11-18T12:34:06.998Z,100829.03
2023-11-18T12:37:48.516Z,100812.53
2023-11-18T12:41:08.441Z,100826.22
2023-11-18T12:44:20.194Z,100840.44
2023-11-18T12:47:24.496Z,100829.22
2023-11-18T12:50:29.902Z,100817.47
2023-11-18T12:53:32.453Z,100810.63
2023-11-18T12:56:35.516Z,100827.53
2023-11-18T12:59:41.342Z,100828.47
2023-11-18T13:02:43.949Z,100829.63
2023-11-18T13:05:46.629Z,100832.63
2023-11-18T13:08:50.084Z,100842.91
2023-11-18T13:12:03.109Z,100820.69
2023-11-18T13:15:09.703Z,100865.94
2023-11-18T13:18:13.587Z,100834.41
2023-11-18T13:21:17.734Z,100881.03
2023-11-18T13:24:20.449Z,100869.09
2023-11-18T13:27:24.212Z,100857.16
2023-11-18T13:30:26.632Z,100862.44
2023-11-18T13:33:29.103Z,100867.25
2023-11-18T13:36:33.150Z,100875.88
2023-11-18T13:39:35.816Z,100867.19
2023-11-18T13:42:40.302Z,100867.28
2023-11-18T13:45:44.051Z,100893.53
2023-11-18T13:48:52.512Z,100880.38
2023-11-18T13:51:57.027Z,100887.66
2023-11-18T13:55:01.511Z,100895.56
2023-11-18T13:58:06.279Z,100874.75
2023-11-18T14:01:09.614Z,100873.44
2023-11-18T14:04:12.158Z,100893.81
2023-11-18T14:07:18.456Z,100889.41
2023-11-18T14:10:21.065Z,100908.66
2023-11-18T14:13:23.554Z,100895.47
2023-11-18T14:16:27.490Z,100898.13
2023-11-18T14:19:32.893Z,100909.91
2023-11-18T14:22:36.321Z,100885.47
2023-11-18T14:25:39.545Z,100902.59
2023-11-18T14:28:43.842Z,100924.91
2023-11-18T14:31:46.860Z,100921.66
2023-11-18T14:34:50.303Z,100919.72
2023-11-18T14:37:54.095Z,100919.53
2023-11-18T14:40:56.672Z,100918.31
2023-11-18T14:43:59.176Z,100955.22
2023-11-18T14:47:01.794Z,100926.47
2023-11-18T14:50:06.672Z,100948.00
2023-11-18T14:53:09.118Z,100944.03
2023-11-18T14:56:11.758Z,100930.41
2023-11-18T14:59:14.240Z,100945.59
2023-11-18T15:02:16.809Z,100948.75
2023-11-18T15:05:20.240Z,100970.84
2023-11-18T15:08:23.018Z,100945.41
2023-11-18T15:11:25.979Z,100944.97
2023-11-18T15:14:29.808Z,100972.03
2023-11-18T15:17:43.913Z,100951.34
2023-11-18T15:20:50.886Z,100959.00
2023-11-18T15:23:53.974Z,100964.38
2023-11-18T15:26:56.585Z,100965.50
2023-11-18T15:29:59.076Z,100962.56
2023-11-18T15:33:02.820Z,100985.31
2023-11-18T15:36:08.593Z,100993.13
2023-11-18T15:39:11.210Z,100973.56
2023-11-18T15:42:14.984Z,100980.16
2023-11-18T15:45:19.323Z,100979.25
2023-11-18T15:48:21.824Z,100996.00
2023-11-18T15:51:26.049Z,100963.06
2023-11-18T15:54:28.558Z,100982.19
2023-11-18T15:57:31.052Z,100976.78
2023-11-18T16:00:33.706Z,100987.75
2023-11-18T16:03:36.255Z,100990.94
2023-11-18T16:06:38.815Z,100979.53
2023-11-18T16:09:41.245Z,101006.72
2023-11-18T16:12:43.700Z,100990.97
2023-11-18T16:15:46.167Z,100977.16
2023-11-18T16:18:48.594Z,101009.34
2023-11-18T16:21:52.770Z,101000.72
2023-11-18T16:24:55.343Z,101009.22
2023-11-18T16:28:00.190Z,101029.47
2023-11-18T16:31:02.874Z,100997.34
2023-11-18T16:34:07.728Z,100989.72
2023-11-18T16:37:10.235Z,101010.72
2023-11-18T16:40:17.315Z,101018.03
2023-11-18T16:43:19.847Z,101004.25
2023-11-18T16:46:22.689Z,101021.81
2023-11-18T16:49:25.211Z,101027.94
2023-11-18T16:52:27.716Z,100989.50
2023-11-18T16:55:32.822Z,101018.31
2023-11-18T16:58:36.829Z,100997.09
2023-11-18T17:01:39.289Z,100987.72
2023-11-18T17:04:41.853Z,101004.34
2023-11-18T17:07:44.578Z,101001.75
2023-11-18T17:10:54.645Z,101000.28
2023-11-18T17:13:57.395Z,100978.88
2023-11-18T17:16:59.971Z,101010.59
2023-11-18T17:20:02.514Z,101020.44
2023-11-18T17:23:05.097Z,101014.00
2023-11-18T17:26:09.610Z,101026.34
2023-11-18T17:29:14.950Z,101047.53
2023-11-18T17:32:17.520Z,101046.06
2023-11-18T17:35:21.619Z,101051.97
2023-11-18T17:38:24.374Z,101078.59
2023-11-18T17:41:26.866Z,101083.81
2023-11-18T17:44:29.408Z,101077.47
2023-11-18T17:47:35.935Z,101094.25
2023-11-18T17:50:38.763Z,101088.34
2023-11-18T17:53:41.478Z,101082.69
2023-11-18T17:56:44.140Z,101076.56
2023-11-18T17:59:46.808Z,101070.22
2023-11-18T18:02:50.214Z,101101.16
2023-11-18T18:05:52.903Z,101078.59
2023-11-18T18:08:56.084Z,101070.34
2023-11-18T18:11:58.483Z,101054.34
2023-11-18T18:15:01.277Z,101076.78
2023-11-18T18:18:04.118Z,101074.31
2023-11-18T18:21:08.556Z,101088.81
2023-11-18T18:24:12.230Z,101096.50
2023-11-18T18:27:14.731Z,101078.13
2023-11-18T18:30:17.775Z,101110.44
2023-11-18T18:33:20.786Z,101067.72
2023-11-18T18:36:23.410Z,101102.06
2023-11-18T18:39:26.023Z,101096.06
2023-11-18T18:42:28.652Z,101084.25
2023-11-18T18:45:32.013Z,101105.91
2023-11-18T18:48:34.674Z,101087.78
2023-11-18T18:51:37.142Z,101074.97
2023-11-18T18:54:39.901Z,101040.63
2023-11-18T18:57:43.509Z,101054.81
2023-11-18T19:00:45.971Z,101031.91
2023-11-18T19:03:48.836Z,101075.44
2023-11-18T19:06:51.343Z,101057.75
2023-11-18T19:09:53.941Z,101061.16
2023-11-18T19:13:01.058Z,101073.72
2023-11-18T19:16:04.711Z,101053.09
2023-11-18T19:19:07.183Z,101062.50
2023-11-18T19:22:10.000Z,101038.81
2023-11-18T19:25:16.923Z,101067.25
2023-11-18T19:28:19.834Z,101075.31
2023-11-18T19:31:22.412Z,101070.53
2023-11-18T19:34:26.280Z,101053.09
2023-11-18T19:37:28.948Z,101056.16
2023-11-18T19:40:33.016Z,101040.16
2023-11-18T19:43:35.501Z,101069.75
2023-11-18T19:46:38.173Z,101087.31
2023-11-18T19:49:42.162Z,101072.22
2023-11-18T19:52:44.791Z,101093.09
2023-11-18T19:55:47.509Z,101086.41
2023-11-18T19:58:50.418Z,101075.63
2023-11-18T20:01:55.924Z,101069.72
2023-11-18T20:04:59.569Z,101093.97
2023-11-18T20:08:02.344Z,101102.72
2023-11-18T20:11:08.487Z,101103.75
2023-11-18T20:14:11.120Z,101070.19
2023-11-18T20:17:14.133Z,101060.91
2023-11-18T20:20:18.351Z,101082.88
2023-11-18T20:23:21.149Z,101056.91
2023-11-18T20:26:23.943Z,101072.88
2023-11-18T20:29:26.443Z,101111.06
2023-11-18T20:32:29.862Z,101098.97
2023-11-18T20:35:32.643Z,101090.31
2023-11-18T20:38:35.457Z,101117.06
2023-11-18T20:41:38.022Z,101113.88
2023-11-18T20:44:40.574Z,101090.06
2023-11-18T20:47:43.209Z,101119.09
2023-11-18T20:50:52.068Z,101117.03
2023-11-18T20:53:54.755Z,101122.72
2023-11-18T20:56:57.418Z,101113.84
2023-11-18T21:00:00.152Z,101095.84
2023-11-18T21:03:03.764Z,101103.75
2023-11-18T21:06:07.773Z,101110.34
2023-11-18T21:09:10.512Z,101105.25
2023-11-18T21:12:18.260Z,101109.34
2023-11-18T21:15:21.849Z,101116.81
2023-11-18T21:18:24.292Z,101120.22
2023-11-18T21:21:26.752Z,101148.22
2023-11-18T21:24:29.166Z,101112.47
2023-11-18T21:27:31.629Z,101098.97
2023-11-18T21:30:34.224Z,101116.44
2023-11-18T21:33:38.787Z,101120.41
2023-11-18T21:36:41.353Z,101111.81
2023-11-18T21:39:43.769Z,101116.91
2023-11-18T21:42:47.108Z,101111.22
2023-11-18T21:45:49.804Z,101132.53
2023-11-18T21:48:52.290Z,101123.81
2023-11-18T21:51:54.737Z,101127.78
2023-11-18T21:54:57.232Z,101137.75
2023-11-18T21:57:59.716Z,101122.00
2023-11-18T22:01:02.341Z,101109.25
2023-11-18T22:04:05.052Z,101110.75
2023-11-18T22:07:07.974Z,101102.81
2023-11-18T22:10:17.694Z,101105.22
2023-11-18T22:13:20.138Z,101107.59
2023-11-18T22:16:22.682Z,101114.72
2023-11-18T22:19:27.602Z,101099.97
2023-11-18T22:25:35.436Z,101091.38
2023-11-18T22:28:39.346Z,101072.09
2023-11-18T22:31:41.801Z,101111.22
2023-11-18T22:34:44.873Z,101103.03
2023-11-18T22:37:48.151Z,101109.06
2023-11-18T22:40:50.864Z,101098.53
2023-11-18T22:43:54.549Z,101128.38
2023-11-18T22:46:57.728Z,101097.13
2023-11-18T22:50:01.155Z,101107.22
2023-11-18T22:53:05.082Z,101105.81
2023-11-18T22:56:08.724Z,101110.13
2023-11-18T22:59:11.240Z,101129.41
2023-11-18T23:02:15.961Z,101120.34
2023-11-18T23:05:18.497Z,101127.69
2023-11-18T23:08:23.397Z,101127.34
2023-11-18T23:11:26.666Z,101110.94
2023-11-18T23:14:29.793Z,101113.31
2023-11-18T23:17:35.012Z,101112.97
2023-11-18T23:20:37.768Z,101096.63
2023-11-18T23:23:40.536Z,101104.91
2023-11-18T23:26:43.069Z,101089.75
2023-11-18T23:29:45.498Z,101074.91
2023-11-18T23:32:53.247Z,101106.00
2023-11-18T23:35:55.705Z,101091.78
2023-11-18T23:42:03.816Z,101105.03
2023-11-18T23:45:08.099Z,101111.50
2023-11-18T23:48:11.272Z,101063.50
2023-11-18T23:51:13.744Z,101070.69
2023-11-18T23:54:16.262Z,101083.25
2023-11-18T23:57:18.989Z,101082.00
